Time;durP1;ratioP1;P1;durP2;ratioP2;P2;SDS_P1;SDS_P2;PMS_P1;PMS_P2;Temp;Humidity;BMP_temperature;BMP_pressure;BME280_temperature;BME280_humidity;BME280_pressure;Samples;Min_cycle;Max_cycle;Signal;HPM_P1;HPM_P2
2022/05/21 00:01:30;;;;;;;9.27;4.75;;;21.60;97.20;;;;;;6187377;23;20352;-73
2022/05/21 00:03:56;;;;;;;4.93;4.13;;;21.60;97.20;;;;;;6214092;23;20000;-73
2022/05/21 00:06:22;;;;;;;5.53;4.22;;;21.60;97.30;;;;;;6213932;23;20479;-73
2022/05/21 00:08:48;;;;;;;5.88;4.50;;;21.50;97.30;;;;;;6213816;23;20083;-73
2022/05/21 00:11:13;;;;;;;5.97;4.22;;;21.50;97.40;;;;;;6213819;23;20007;-73
2022/05/21 00:13:39;;;;;;;4.32;3.90;;;21.40;97.50;;;;;;6213685;23;20025;-73
2022/05/21 00:16:05;;;;;;;5.30;4.80;;;21.40;97.60;;;;;;6213723;23;20372;-74
2022/05/21 00:18:32;;;;;;;5.05;4.50;;;21.40;97.60;;;;;;6187197;23;20104;-74
2022/05/21 00:20:57;;;;;;;13.52;4.97;;;21.50;97.60;;;;;;6213498;23;20236;-74
2022/05/21 00:23:28;;;;;;;4.57;4.18;;;21.40;97.70;;;;;;6213704;23;20001;-74
2022/05/21 00:26:05;;;;;;;7.85;4.50;;;21.40;97.80;;;;;;6213862;23;20027;-73
2022/05/21 00:28:32;;;;;;;6.53;4.53;;;21.30;97.90;;;;;;6186759;23;20063;-74
2022/05/21 00:30:59;;;;;;;7.18;4.53;;;21.30;98.00;;;;;;6213680;23;20024;-74
2022/05/21 00:33:26;;;;;;;6.68;4.70;;;21.30;98.00;;;;;;6187070;23;20371;-74
2022/05/21 00:35:52;;;;;;;5.03;4.47;;;21.30;98.00;;;;;;6186970;23;20425;-74
2022/05/21 00:38:18;;;;;;;4.30;3.90;;;21.30;98.20;;;;;;6213475;23;20027;-74
2022/05/21 00:40:45;;;;;;;5.90;4.57;;;21.30;98.20;;;;;;6213682;23;20340;-73
2022/05/21 00:43:32;;;;;;;5.35;4.80;;;21.30;98.20;;;;;;6213264;23;20012;-74
2022/05/21 00:45:59;;;;;;;10.65;4.43;;;21.30;98.30;;;;;;6186708;23;20507;-74
2022/05/21 00:48:25;;;;;;;7.53;4.72;;;21.30;98.20;;;;;;6213246;23;20005;-74
2022/05/21 00:50:52;;;;;;;6.75;4.53;;;21.20;98.40;;;;;;6213479;23;19996;-74
2022/05/21 00:53:19;;;;;;;6.05;4.50;;;21.20;98.50;;;;;;6213404;23;20389;-73
2022/05/21 00:55:49;;;;;;;8.18;5.00;;;21.20;98.60;;;;;;6213175;23;19997;-73
2022/05/21 01:01:05;;;;;;;5.22;4.50;;;21.20;99.10;;;;;;6212913;23;20044;-73
2022/05/21 01:03:31;;;;;;;7.18;4.70;;;21.10;98.70;;;;;;6213097;23;20039;-74
2022/05/21 01:06:03;;;;;;;5.10;4.65;;;21.10;98.80;;;;;;6213262;23;20004;-73
2022/05/21 01:08:29;;;;;;;6.43;4.65;;;21.00;98.90;;;;;;6213249;23;20000;-74
2022/05/21 01:11:03;;;;;;;5.13;4.80;;;21.00;99.10;;;;;;6213140;23;20426;-74
2022/05/21 01:13:34;;;;;;;6.65;4.70;;;21.00;99.10;;;;;;6213957;23;20001;-73
2022/05/21 01:16:01;;;;;;;5.60;4.23;;;21.00;99.20;;;;;;6187325;23;20104;-73
2022/05/21 01:18:26;;;;;;;7.90;4.72;;;21.00;99.30;;;;;;6213651;23;20471;-74
2022/05/21 01:20:58;;;;;;;4.60;4.30;;;21.00;99.20;;;;;;6213866;23;20000;-74
2022/05/21 01:23:25;;;;;;;7.03;5.32;;;21.00;99.30;;;;;;6213754;23;20336;-74
2022/05/21 01:25:52;;;;;;;5.70;4.82;;;21.00;99.20;;;;;;6213908;23;20000;-74
2022/05/21 01:28:21;;;;;;;6.35;4.30;;;21.00;99.30;;;;;;6187139;23;20083;-74
2022/05/21 01:30:50;;;;;;;4.20;3.78;;;21.00;99.50;;;;;;6213733;23;20000;-74
2022/05/21 01:33:17;;;;;;;4.15;3.80;;;20.90;99.60;;;;;;6186824;23;20007;-74
2022/05/21 01:35:45;;;;;;;7.78;4.38;;;20.90;99.60;;;;;;6213546;23;20072;-73
2022/05/21 01:38:13;;;;;;;6.20;4.47;;;21.00;99.60;;;;;;6213862;23;20393;-73
2022/05/21 01:40:39;;;;;;;5.03;4.47;;;20.90;99.60;;;;;;6213922;23;20001;-73
2022/05/21 01:45:52;;;;;;;4.25;3.95;;;20.90;99.70;;;;;;6213597;23;20066;-74
2022/05/21 01:48:23;;;;;;;5.55;4.60;;;20.90;99.80;;;;;;6213427;23;20079;-74
2022/05/21 01:50:51;;;;;;;5.55;4.07;;;20.90;99.80;;;;;;6187071;23;20384;-74
2022/05/21 01:53:17;;;;;;;5.47;4.85;;;20.90;99.80;;;;;;6213634;23;20393;-73
2022/05/21 01:55:45;;;;;;;7.38;4.40;;;20.90;99.70;;;;;;6213522;23;20424;-73
2022/05/21 01:58:11;;;;;;;6.82;4.68;;;20.90;99.80;;;;;;6186899;23;20375;-74
2022/05/21 02:00:37;;;;;;;5.97;4.38;;;20.90;99.90;;;;;;6186908;23;20087;-74
2022/05/21 02:03:04;;;;;;;7.13;4.43;;;20.90;99.90;;;;;;6186876;23;20012;-74
2022/05/21 02:05:29;;;;;;;7.97;4.45;;;20.80;99.90;;;;;;6213487;23;20059;-73
2022/05/21 02:07:55;;;;;;;5.22;4.70;;;20.90;99.90;;;;;;6186720;23;20076;-73
2022/05/21 02:10:22;;;;;;;5.97;4.75;;;20.80;99.90;;;;;;6213736;23;20024;-74
2022/05/21 02:12:48;;;;;;;5.15;4.35;;;20.80;99.90;;;;;;6186606;23;20341;-74
2022/05/21 02:15:14;;;;;;;5.35;4.75;;;20.70;99.90;;;;;;6213734;23;20055;-74
2022/05/21 02:17:40;;;;;;;11.05;4.70;;;20.70;99.90;;;;;;6213478;23;20025;-74
2022/05/21 02:20:06;;;;;;;10.45;4.63;;;20.80;99.90;;;;;;6213443;23;20114;-74
2022/05/21 02:22:32;;;;;;;8.23;4.10;;;20.70;99.90;;;;;;6213520;23;20420;-74
2022/05/21 02:24:58;;;;;;;8.20;4.75;;;20.80;99.90;;;;;;6213384;23;20028;-74
2022/05/21 02:27:24;;;;;;;8.10;4.90;;;20.70;99.90;;;;;;6213236;23;20062;-73
2022/05/21 02:29:51;;;;;;;4.93;4.57;;;20.80;99.90;;;;;;6213334;23;20051;-74
2022/05/21 02:32:17;;;;;;;4.70;4.22;;;20.70;99.90;;;;;;6213567;23;20028;-73
2022/05/21 02:34:43;;;;;;;5.20;4.78;;;20.80;99.90;;;;;;6213093;23;20051;-74
2022/05/21 02:39:54;;;;;;;6.50;5.70;;;20.70;99.90;;;;;;6213458;23;20047;-74
2022/05/21 02:45:05;;;;;;;7.13;5.70;;;20.60;99.90;;;;;;6213530;23;20015;-73
2022/05/21 02:47:31;;;;;;;7.10;4.75;;;20.50;99.90;;;;;;6214352;23;20318;-74
2022/05/21 02:49:57;;;;;;;4.57;3.85;;;20.50;99.90;;;;;;6188727;23;20372;-73
2022/05/21 02:52:23;;;;;;;6.85;5.00;;;20.50;99.90;;;;;;6215205;23;20007;-74
2022/05/21 02:54:50;;;;;;;5.53;4.38;;;20.50;99.90;;;;;;6214999;23;20052;-74
2022/05/21 02:57:16;;;;;;;7.05;4.65;;;20.50;99.90;;;;;;6215260;23;20004;-74
2022/05/21 02:59:42;;;;;;;5.55;5.05;;;20.50;99.90;;;;;;6214826;23;20052;-74
2022/05/21 03:02:08;;;;;;;6.82;4.63;;;20.50;99.90;;;;;;6214959;23;20032;-73
2022/05/21 03:04:34;;;;;;;6.10;4.80;;;20.40;99.90;;;;;;6215004;23;20480;-74
2022/05/21 03:07:01;;;;;;;5.15;4.70;;;20.30;99.90;;;;;;6215283;23;20024;-74
2022/05/21 03:12:12;;;;;;;4.78;4.45;;;20.30;99.90;;;;;;6214992;23;20046;-74
2022/05/21 03:14:41;;;;;;;7.07;4.75;;;20.20;99.90;;;;;;6215094;23;19997;-74
2022/05/21 03:17:07;;;;;;;5.35;4.47;;;20.30;99.90;;;;;;6188148;23;20016;-74
2022/05/21 03:19:34;;;;;;;6.70;5.15;;;20.20;99.90;;;;;;6214894;23;20015;-73
2022/05/21 03:22:00;;;;;;;5.70;4.43;;;20.20;99.90;;;;;;6214857;23;20314;-74
2022/05/21 03:24:28;;;;;;;7.35;5.13;;;20.20;99.90;;;;;;6214904;23;20448;-73
2022/05/21 03:26:53;;;;;;;5.65;5.15;;;20.30;99.90;;;;;;6214786;23;20004;-74
2022/05/21 03:29:20;;;;;;;5.35;4.90;;;20.20;99.90;;;;;;6214711;23;20013;-73
2022/05/21 03:31:46;;;;;;;7.70;5.13;;;20.20;99.90;;;;;;6188103;23;20007;-73
2022/05/21 03:34:12;;;;;;;5.38;4.72;;;20.20;99.90;;;;;;6214793;23;20000;-74
2022/05/21 03:36:38;;;;;;;5.35;4.50;;;20.20;99.90;;;;;;6214540;23;20011;-74
2022/05/21 03:39:04;;;;;;;7.22;5.00;;;20.10;99.90;;;;;;6214963;23;20000;-74
2022/05/21 03:41:30;;;;;;;6.13;4.70;;;20.00;99.90;;;;;;6214931;23;20027;-73
2022/05/21 03:43:57;;;;;;;5.10;4.60;;;20.10;99.90;;;;;;6214527;23;20004;-73
2022/05/21 03:46:23;;;;;;;5.43;4.63;;;20.10;99.90;;;;;;6214678;23;20004;-74
2022/05/21 03:48:49;;;;;;;6.13;4.30;;;20.20;99.90;;;;;;6214458;23;20139;-74
2022/05/21 03:51:15;;;;;;;7.78;4.70;;;20.20;99.90;;;;;;6214640;23;20380;-74
2022/05/21 03:53:41;;;;;;;4.93;4.05;;;20.20;99.90;;;;;;6214478;23;20071;-73
2022/05/21 03:56:07;;;;;;;5.05;4.65;;;20.20;99.90;;;;;;6214749;23;20028;-74
2022/05/21 03:58:33;;;;;;;6.70;4.53;;;20.20;99.90;;;;;;6214211;23;20007;-74
2022/05/21 04:00:59;;;;;;;7.88;4.55;;;20.10;99.90;;;;;;6187836;23;20004;-74
2022/05/21 04:03:26;;;;;;;5.95;5.07;;;20.10;99.90;;;;;;6214645;23;20035;-74
2022/05/21 04:05:56;;;;;;;5.65;4.35;;;20.10;99.90;;;;;;6214493;23;20331;-74
2022/05/21 04:08:22;;;;;;;5.65;4.68;;;20.10;99.90;;;;;;6214156;23;20088;-74
2022/05/21 04:10:48;;;;;;;6.10;4.38;;;20.10;99.90;;;;;;6214480;23;20004;-74
2022/05/21 04:13:14;;;;;;;5.13;4.68;;;20.10;99.90;;;;;;6214451;23;19992;-74
2022/05/21 04:15:40;;;;;;;7.85;5.03;;;20.10;99.90;;;;;;6214087;23;20474;-74
2022/05/21 04:18:06;;;;;;;7.65;4.85;;;20.10;99.90;;;;;;6214436;23;20096;-74
2022/05/21 04:20:32;;;;;;;5.68;4.07;;;20.10;99.90;;;;;;6214094;23;20067;-74
2022/05/21 04:22:58;;;;;;;6.50;4.65;;;20.00;99.90;;;;;;6187519;23;20434;-74
2022/05/21 04:25:24;;;;;;;6.13;4.53;;;20.00;99.90;;;;;;6187717;23;20059;-74
2022/05/21 04:27:50;;;;;;;5.45;4.75;;;20.00;99.90;;;;;;6187762;23;20010;-74
2022/05/21 04:30:25;;;;;;;7.13;5.22;;;20.00;99.90;;;;;;6187425;23;20098;-74
2022/05/21 04:32:52;;;;;;;8.68;4.82;;;20.00;99.90;;;;;;6214112;23;20000;-74
2022/05/21 04:35:19;;;;;;;5.55;5.05;;;19.90;99.90;;;;;;6187622;23;20216;-74
2022/05/21 04:37:46;;;;;;;6.57;5.38;;;19.90;99.90;;;;;;6187718;23;20012;-74
2022/05/21 04:40:17;;;;;;;5.32;4.80;;;19.90;99.90;;;;;;6187636;23;20015;-74
2022/05/21 04:42:43;;;;;;;11.55;4.88;;;19.90;99.90;;;;;;6214179;23;20008;-74
2022/05/21 04:45:09;;;;;;;8.30;4.57;;;19.90;99.90;;;;;;6214083;23;20000;-74
2022/05/21 04:47:36;;;;;;;9.43;4.95;;;19.90;99.90;;;;;;6213993;23;20080;-74
2022/05/21 04:50:02;;;;;;;8.65;5.25;;;20.00;99.90;;;;;;6214109;23;20001;-74
2022/05/21 04:52:28;;;;;;;5.18;4.70;;;20.00;99.90;;;;;;6213897;23;20005;-73
2022/05/21 04:54:54;;;;;;;8.25;5.10;;;20.00;99.90;;;;;;6187336;23;20108;-73
2022/05/21 04:57:20;;;;;;;6.30;4.93;;;20.00;99.90;;;;;;6213878;23;20024;-74
2022/05/21 04:59:46;;;;;;;8.07;4.95;;;20.10;99.90;;;;;;6213821;23;19997;-74
2022/05/21 05:02:12;;;;;;;6.28;4.88;;;20.10;99.90;;;;;;6187292;23;20327;-74
2022/05/21 05:04:38;;;;;;;5.05;4.65;;;20.20;99.90;;;;;;6213998;23;20345;-74
2022/05/21 05:07:08;;;;;;;7.75;5.10;;;20.20;99.90;;;;;;6187266;23;20000;-74
2022/05/21 05:09:42;;;;;;;11.85;5.63;;;20.20;99.90;;;;;;6213173;23;20052;-74
2022/05/21 05:12:08;;;;;;;6.53;4.88;;;20.20;99.90;;;;;;6213885;23;20000;-74
2022/05/21 05:14:35;;;;;;;4.45;4.15;;;20.30;99.90;;;;;;6213633;23;20050;-74
2022/05/21 05:17:00;;;;;;;6.43;4.78;;;20.30;99.90;;;;;;6213773;23;20445;-74
2022/05/21 05:19:30;;;;;;;6.57;4.78;;;20.30;99.90;;;;;;6213759;23;20055;-73
2022/05/21 05:21:56;;;;;;;8.43;4.70;;;20.40;99.90;;;;;;6213760;23;20448;-74
2022/05/21 05:24:22;;;;;;;5.22;4.63;;;20.40;99.90;;;;;;6213565;23;20001;-74
2022/05/21 05:26:48;;;;;;;6.60;4.43;;;20.60;99.90;;;;;;6213987;23;20052;-74
2022/05/21 05:29:13;;;;;;;6.28;4.72;;;20.60;99.90;;;;;;6213469;23;20004;-74
2022/05/21 05:31:39;;;;;;;7.57;4.85;;;20.70;99.90;;;;;;6213649;23;20539;-74
2022/05/21 05:34:05;;;;;;;4.97;4.57;;;20.80;99.90;;;;;;6213690;23;20002;-74
2022/05/21 05:36:31;;;;;;;5.82;4.70;;;20.80;99.90;;;;;;6213627;23;20001;-74
2022/05/21 05:38:59;;;;;;;7.35;5.25;;;20.90;99.90;;;;;;6213476;23;20055;-74
2022/05/21 05:41:26;;;;;;;5.25;4.68;;;20.90;99.90;;;;;;6213679;23;20030;-74
2022/05/21 05:43:56;;;;;;;6.28;5.00;;;21.00;99.90;;;;;;6213584;23;20471;-74
2022/05/21 05:46:23;;;;;;;10.07;5.22;;;21.00;99.90;;;;;;6213664;23;20058;-74
2022/05/21 05:48:49;;;;;;;9.63;5.55;;;21.10;99.90;;;;;;6213328;23;20005;-74
2022/05/21 05:51:17;;;;;;;10.07;6.22;;;21.10;99.90;;;;;;6213707;23;19997;-74
2022/05/21 05:53:44;;;;;;;10.18;5.60;;;21.20;99.90;;;;;;6213707;23;20008;-74
2022/05/21 05:56:10;;;;;;;8.07;6.13;;;21.20;99.90;;;;;;6213551;23;20080;-74
2022/05/21 06:01:26;;;;;;;10.02;6.43;;;21.40;99.90;;;;;;6213468;23;20020;-74
2022/05/21 06:03:52;;;;;;;9.73;6.30;;;21.40;99.90;;;;;;6213398;23;20444;-74
2022/05/21 06:06:18;;;;;;;9.60;7.05;;;21.50;99.90;;;;;;6186921;23;20012;-74
2022/05/21 06:08:44;;;;;;;7.32;6.57;;;21.50;99.90;;;;;;6213419;23;20008;-74
2022/05/21 06:11:11;;;;;;;10.50;6.57;;;21.50;99.90;;;;;;6213407;23;20051;-74
2022/05/21 06:13:37;;;;;;;8.48;6.47;;;21.50;99.90;;;;;;6213558;23;20005;-74
2022/05/21 06:16:03;;;;;;;10.50;7.43;;;21.50;99.90;;;;;;6186489;23;20016;-74
2022/05/21 06:18:29;;;;;;;12.75;7.47;;;21.60;99.90;;;;;;6213039;23;20000;-74
2022/05/21 06:20:59;;;;;;;7.78;6.80;;;21.50;99.90;;;;;;6214632;23;20004;-74
2022/05/21 06:23:25;;;;;;;10.23;6.20;;;21.60;99.90;;;;;;6215705;23;20421;-74
2022/05/21 06:25:52;;;;;;;9.63;6.70;;;21.60;99.90;;;;;;6216391;23;20001;-74
2022/05/21 06:28:17;;;;;;;16.55;7.05;;;21.70;99.90;;;;;;6213217;23;20452;-74
2022/05/21 06:30:45;;;;;;;9.05;6.88;;;21.70;99.90;;;;;;6213618;23;19997;-74
2022/05/21 06:33:19;;;;;;;9.30;7.47;;;21.80;99.90;;;;;;6188426;23;20344;-74
2022/05/21 06:36:00;;;;;;;10.10;6.95;;;21.80;99.90;;;;;;6215174;23;20472;-74
2022/05/21 06:38:25;;;;;;;10.10;7.20;;;21.70;99.90;;;;;;6215410;23;20052;-74
2022/05/21 06:40:51;;;;;;;10.07;8.10;;;21.80;99.90;;;;;;6215417;23;20000;-74
2022/05/21 06:43:17;;;;;;;10.82;7.80;;;21.70;99.90;;;;;;6214526;23;20012;-74
2022/05/21 06:45:42;;;;;;;9.43;7.57;;;21.70;99.90;;;;;;6186146;23;20008;-74
2022/05/21 06:48:09;;;;;;;11.57;8.15;;;21.70;99.90;;;;;;6212782;23;20004;-74
2022/05/21 06:50:38;;;;;;;9.05;6.97;;;21.80;99.90;;;;;;6212698;23;20001;-74
2022/05/21 06:53:04;;;;;;;12.82;8.95;;;21.90;99.90;;;;;;6186300;23;20005;-74
2022/05/21 06:55:31;;;;;;;16.42;8.00;;;21.90;99.90;;;;;;6213055;23;19997;-74
2022/05/21 06:57:56;;;;;;;14.73;8.40;;;21.90;99.90;;;;;;6212728;23;20015;-74
2022/05/21 07:00:23;;;;;;;13.75;8.73;;;22.00;99.90;;;;;;6213810;23;20024;-74
2022/05/21 07:02:50;;;;;;;12.13;8.48;;;22.10;99.90;;;;;;6213728;23;20000;-74
2022/05/21 07:08:16;;;;;;;10.88;7.82;;;22.10;99.90;;;;;;6213974;23;20092;-74
2022/05/21 07:10:42;;;;;;;11.70;8.55;;;22.20;99.90;;;;;;6213627;23;20011;-74
2022/05/21 07:13:07;;;;;;;13.80;8.40;;;22.30;99.90;;;;;;6213419;23;20004;-74
2022/05/21 07:15:36;;;;;;;14.00;8.45;;;22.30;99.90;;;;;;6213485;23;20001;-74
2022/05/21 07:18:03;;;;;;;12.38;8.75;;;22.30;99.90;;;;;;6213507;23;20005;-74
2022/05/21 07:20:30;;;;;;;11.82;8.95;;;22.30;99.90;;;;;;6214398;23;20005;-74
2022/05/21 07:22:56;;;;;;;17.23;9.30;;;22.40;99.90;;;;;;6214797;23;20005;-74
2022/05/21 07:25:24;;;;;;;11.85;8.88;;;22.40;99.90;;;;;;6215031;23;20005;-74
2022/05/21 07:27:51;;;;;;;10.27;8.43;;;22.40;99.90;;;;;;6214639;23;20313;-74
2022/05/21 07:30:17;;;;;;;10.30;8.57;;;22.50;99.90;;;;;;6215017;23;20005;-74
2022/05/21 07:32:44;;;;;;;11.90;8.57;;;22.50;99.50;;;;;;6214222;23;19988;-74
2022/05/21 07:35:14;;;;;;;10.13;9.07;;;22.50;99.70;;;;;;6214952;23;20001;-75
2022/05/21 07:37:40;;;;;;;14.90;8.27;;;22.60;99.90;;;;;;6214870;23;20036;-74
2022/05/21 07:40:07;;;;;;;10.82;8.77;;;22.70;99.90;;;;;;6213642;23;20394;-74
2022/05/21 07:42:33;;;;;;;10.68;9.07;;;22.80;99.90;;;;;;6211855;23;20076;-74
2022/05/21 07:44:59;;;;;;;12.52;8.98;;;22.80;99.90;;;;;;6185646;23;20029;-74
2022/05/21 07:47:25;;;;;;;10.90;8.40;;;22.90;99.90;;;;;;6185223;23;20051;-74
2022/05/21 07:49:56;;;;;;;13.13;9.18;;;22.80;99.70;;;;;;6212430;23;20076;-74
2022/05/21 07:52:26;;;;;;;8.10;7.22;;;22.90;99.50;;;;;;6186131;23;20004;-74
2022/05/21 07:54:52;;;;;;;10.68;8.30;;;22.90;99.80;;;;;;6186598;23;20376;-74
2022/05/21 07:57:18;;;;;;;12.52;8.30;;;23.00;99.80;;;;;;6186741;23;20000;-74
2022/05/21 07:59:43;;;;;;;10.85;8.70;;;23.10;99.40;;;;;;6214406;23;20107;-74
2022/05/21 08:02:12;;;;;;;10.23;9.05;;;23.10;98.80;;;;;;6214044;23;20005;-74
2022/05/21 08:04:39;;;;;;;12.25;9.25;;;23.10;98.00;;;;;;6214074;23;20000;-74
2022/05/21 08:07:05;;;;;;;13.15;8.20;;;23.10;98.00;;;;;;6214296;23;20004;-74
2022/05/21 08:09:30;;;;;;;10.75;7.72;;;23.20;98.90;;;;;;6214209;23;20007;-74
2022/05/21 08:11:56;;;;;;;13.48;8.80;;;23.20;98.20;;;;;;6214138;23;20376;-75
2022/05/21 08:14:23;;;;;;;16.00;9.18;;;23.30;98.00;;;;;;6214405;23;20083;-75
2022/05/21 08:16:49;;;;;;;8.77;7.88;;;23.40;97.30;;;;;;6187441;23;20013;-75
2022/05/21 08:19:16;;;;;;;11.45;8.80;;;23.40;98.50;;;;;;6214505;23;20027;-74
2022/05/21 08:21:42;;;;;;;17.65;8.85;;;23.40;97.70;;;;;;6214288;23;20484;-74
2022/05/21 08:27:02;;;;;;;14.45;9.30;;;23.50;97.60;;;;;;6214251;23;20067;-74
2022/05/21 08:29:36;;;;;;;11.55;8.35;;;23.50;97.00;;;;;;6213919;23;20314;-75
2022/05/21 08:32:04;;;;;;;11.15;8.50;;;23.60;97.50;;;;;;6213982;23;20075;-74
2022/05/21 08:34:30;;;;;;;16.30;8.35;;;23.60;96.90;;;;;;6214148;23;20024;-74
2022/05/21 08:36:57;;;;;;;16.35;8.95;;;23.70;97.20;;;;;;6214295;23;20080;-75
2022/05/21 08:39:23;;;;;;;11.88;8.90;;;23.60;96.30;;;;;;6187543;23;20087;-75
2022/05/21 08:41:59;;;;;;;12.20;8.75;;;23.60;96.70;;;;;;6214164;23;20011;-75
2022/05/21 08:44:33;;;;;;;9.88;7.82;;;23.70;96.60;;;;;;6214271;23;20079;-74
2022/05/21 08:47:34;;;;;;;11.57;8.45;;;23.80;96.90;;;;;;6214015;23;20494;-74
2022/05/21 08:50:16;;;;;;;12.15;8.68;;;23.90;97.30;;;;;;6192568;23;20333;-74
2022/05/21 08:53:04;;;;;;;13.73;8.90;;;23.90;96.10;;;;;;6213916;23;20001;-74
2022/05/21 08:55:36;;;;;;;10.02;8.52;;;23.90;96.00;;;;;;6214134;23;20004;-75
2022/05/21 08:58:09;;;;;;;16.80;9.05;;;24.10;96.70;;;;;;6214113;23;20055;-74
2022/05/21 09:00:37;;;;;;;11.85;8.18;;;24.00;95.50;;;;;;6213901;23;20001;-75
2022/05/21 09:03:09;;;;;;;15.90;8.95;;;24.00;95.50;;;;;;6215219;23;20365;-74
2022/05/21 09:05:37;;;;;;;13.32;8.07;;;24.00;95.70;;;;;;6215138;23;20058;-74
2022/05/21 09:08:09;;;;;;;15.35;9.40;;;24.10;96.90;;;;;;6215325;23;20007;-74
2022/05/21 09:10:35;;;;;;;10.18;8.40;;;24.10;95.70;;;;;;6215631;23;20001;-74
2022/05/21 09:13:18;;;;;;;12.82;7.80;;;24.20;96.30;;;;;;6188132;23;20027;-74
2022/05/21 09:18:33;;;;;;;13.90;8.05;;;24.40;96.10;;;;;;6215200;23;20368;-74
2022/05/21 09:21:01;;;;;;;15.35;8.43;;;24.60;96.30;;;;;;6187047;23;20008;-75
2022/05/21 09:23:53;;;;;;;12.10;8.63;;;24.60;95.20;;;;;;6213120;23;20039;-74
2022/05/21 09:26:22;;;;;;;10.00;7.95;;;24.60;95.20;;;;;;6212678;23;20007;-74
2022/05/21 09:28:48;;;;;;;11.77;8.23;;;24.60;94.50;;;;;;6213103;23;20007;-74
2022/05/21 09:31:30;;;;;;;13.70;8.68;;;24.50;95.00;;;;;;6213114;23;20005;-74
2022/05/21 09:34:31;;;;;;;11.07;8.70;;;24.60;95.20;;;;;;6213129;23;20004;-74
2022/05/21 09:36:58;;;;;;;11.20;8.48;;;24.70;94.70;;;;;;6185920;23;20005;-74
2022/05/21 09:39:38;;;;;;;9.48;8.18;;;24.80;95.10;;;;;;6213699;23;20024;-77
2022/05/21 09:45:26;;;;;;;11.63;8.60;;;25.00;93.90;;;;;;6213376;23;20353;-76
2022/05/21 09:48:04;;;;;;;10.82;8.77;;;25.00;94.00;;;;;;6213761;23;20004;-76
2022/05/21 09:50:50;;;;;;;14.98;9.00;;;25.10;94.20;;;;;;6213668;23;20003;-76
2022/05/21 09:53:24;;;;;;;10.25;8.13;;;25.10;93.50;;;;;;6186134;23;20001;-75
2022/05/21 09:56:02;;;;;;;11.90;8.00;;;25.20;93.40;;;;;;6213245;23;19997;-76
2022/05/21 09:58:32;;;;;;;8.60;7.15;;;25.40;94.50;;;;;;6213797;23;20004;-76
2022/05/21 10:00:58;;;;;;;11.80;8.55;;;25.40;93.60;;;;;;6213441;23;20011;-75
2022/05/21 10:03:36;;;;;;;15.20;9.25;;;25.50;93.50;;;;;;6213377;23;20000;-76
2022/05/21 10:06:20;;;;;;;14.60;10.27;;;25.50;92.30;;;;;;6187078;23;20008;-76
2022/05/21 10:11:53;;;;;;;15.30;9.82;;;25.70;92.60;;;;;;6213723;23;20028;-75
2022/05/21 10:14:49;;;;;;;15.85;8.75;;;25.70;92.50;;;;;;6213621;23;20003;-76
2022/05/21 10:17:25;;;;;;;10.40;8.32;;;25.70;93.10;;;;;;6213179;23;20017;-76
2022/05/21 10:20:12;;;;;;;11.32;8.98;;;25.80;92.70;;;;;;6213582;23;20387;-76
2022/05/21 10:22:50;;;;;;;15.30;9.25;;;25.80;92.20;;;;;;6213494;23;20425;-76
2022/05/21 10:25:21;;;;;;;11.23;10.02;;;25.80;92.40;;;;;;6213365;23;20044;-76
2022/05/21 10:28:03;;;;;;;10.35;8.98;;;25.80;93.50;;;;;;6214809;23;20004;-76
2022/05/21 10:30:51;;;;;;;12.35;9.25;;;25.90;93.30;;;;;;6214937;23;20457;-77
2022/05/21 10:33:27;;;;;;;23.40;9.30;;;26.10;94.20;;;;;;6203472;23;20008;-76
2022/05/21 10:36:13;;;;;;;14.25;8.88;;;26.20;94.10;;;;;;6215121;23;19996;-76
2022/05/21 10:39:08;;;;;;;14.20;9.38;;;26.30;93.00;;;;;;6214630;23;20005;-76
2022/05/21 10:41:55;;;;;;;11.73;9.10;;;26.40;92.90;;;;;;6159636;23;20451;-76
2022/05/21 10:44:44;;;;;;;9.73;7.70;;;26.50;92.90;;;;;;6212475;23;20009;-74
2022/05/21 10:47:48;;;;;;;13.23;8.40;;;26.70;93.00;;;;;;6211247;23;20019;-75
2022/05/21 10:50:17;;;;;;;8.63;7.75;;;27.00;94.20;;;;;;6186845;23;20129;-74
2022/05/21 10:53:01;;;;;;;10.23;8.48;;;27.20;93.30;;;;;;6212087;23;20012;-74
2022/05/21 10:56:11;;;;;;;12.95;8.07;;;27.30;91.30;;;;;;6209435;23;20383;-74
2022/05/21 10:59:07;;;;;;;13.10;7.47;;;27.40;92.60;;;;;;6152706;23;20000;-74
2022/05/21 11:01:48;;;;;;;7.32;6.63;;;27.60;93.20;;;;;;6181737;23;20368;-75
2022/05/21 11:05:07;;;;;;;7.60;7.00;;;27.80;91.80;;;;;;6208550;23;20024;-74
2022/05/21 11:07:38;;;;;;;16.17;7.80;;;27.90;90.70;;;;;;6088950;23;20003;-74
2022/05/21 11:10:18;;;;;;;14.93;8.80;;;27.80;89.00;;;;;;6207346;23;20000;-74
2022/05/21 11:12:53;;;;;;;9.23;6.97;;;27.70;89.20;;;;;;6213302;23;19997;-74
2022/05/21 11:15:45;;;;;;;9.45;7.65;;;27.60;90.10;;;;;;6215081;23;20432;-75
2022/05/21 11:18:26;;;;;;;6.57;6.03;;;27.70;90.50;;;;;;6179812;23;20020;-74
2022/05/21 11:21:03;;;;;;;10.07;6.20;;;27.80;89.60;;;;;;6185760;23;20005;-74
2022/05/21 11:24:03;;;;;;;8.05;7.18;;;28.00;90.50;;;;;;6159037;23;20377;-75
2022/05/21 11:26:45;;;;;;;14.95;6.90;;;28.00;87.30;;;;;;6159302;23;20013;-74
2022/05/21 11:29:24;;;;;;;8.52;7.05;;;28.20;88.40;;;;;;6185983;23;20087;-74
2022/05/21 11:37:39;;;;;;;10.70;5.97;;;28.60;86.90;;;;;;6185072;23;20452;-74
2022/05/21 11:40:07;;;;;;;12.25;6.35;;;28.80;88.50;;;;;;6184976;23;20001;-74
2022/05/21 11:42:35;;;;;;;8.77;6.15;;;28.90;87.00;;;;;;6184992;23;20046;-74
2022/05/21 11:45:09;;;;;;;7.05;6.38;;;29.00;87.80;;;;;;6185058;23;20005;-74
2022/05/21 11:48:15;;;;;;;6.80;6.13;;;28.90;84.00;;;;;;6184233;23;20001;-74
2022/05/21 11:50:42;;;;;;;11.63;7.45;;;28.90;83.10;;;;;;6158165;23;20011;-74
2022/05/21 11:53:29;;;;;;;6.93;6.18;;;28.90;81.80;;;;;;6184753;23;20026;-74
2022/05/21 11:56:01;;;;;;;7.70;6.18;;;29.00;82.80;;;;;;6184564;23;20363;-74
2022/05/21 11:58:50;;;;;;;10.00;5.80;;;29.20;83.40;;;;;;6158235;23;20092;-74
2022/05/21 12:01:40;;;;;;;10.98;6.60;;;29.30;81.60;;;;;;6158128;23;20012;-74
2022/05/21 12:04:35;;;;;;;7.88;5.82;;;29.30;82.20;;;;;;6184235;23;20427;-74
2022/05/21 12:07:04;;;;;;;6.78;6.22;;;29.60;83.50;;;;;;6151010;23;20067;-74
2022/05/21 12:09:31;;;;;;;6.63;6.03;;;29.80;81.90;;;;;;6184630;23;20005;-74
2022/05/21 12:12:22;;;;;;;8.05;5.57;;;29.90;82.10;;;;;;6184507;23;19997;-74
2022/05/21 12:14:54;;;;;;;13.73;6.55;;;30.00;80.30;;;;;;6184469;23;20310;-74
2022/05/21 12:17:43;;;;;;;8.93;5.93;;;30.00;78.50;;;;;;6208100;23;20062;-74
2022/05/21 12:20:17;;;;;;;7.53;6.07;;;30.00;78.60;;;;;;6214424;23;20040;-74
2022/05/21 12:22:50;;;;;;;5.57;5.18;;;30.10;78.60;;;;;;6214557;23;20001;-74
2022/05/21 12:25:44;;;;;;;8.63;5.75;;;30.10;79.10;;;;;;6214661;23;20004;-74
2022/05/21 12:28:11;;;;;;;5.93;5.30;;;30.20;80.20;;;;;;6214352;23;20244;-74
2022/05/21 12:30:37;;;;;;;7.47;5.97;;;30.40;78.70;;;;;;6214583;23;20004;-74
2022/05/21 12:33:06;;;;;;;6.50;5.82;;;30.50;76.80;;;;;;6187859;23;20021;-74
2022/05/21 12:35:50;;;;;;;11.63;6.43;;;30.30;75.70;;;;;;6214348;23;20101;-74
2022/05/21 12:38:52;;;;;;;6.80;6.07;;;30.30;76.70;;;;;;6214360;23;20008;-74
2022/05/21 12:41:25;;;;;;;6.43;5.75;;;30.20;77.20;;;;;;6093207;23;20097;-74
2022/05/21 12:43:53;;;;;;;15.65;6.40;;;30.20;77.30;;;;;;6196405;23;20340;-74
2022/05/21 12:46:22;;;;;;;12.48;6.15;;;30.20;76.70;;;;;;6214143;23;20047;-74
2022/05/21 12:48:49;;;;;;;11.52;7.03;;;30.00;76.70;;;;;;6187411;23;20015;-74
2022/05/21 12:51:54;;;;;;;9.18;7.40;;;30.00;76.30;;;;;;6214132;23;20000;-74
2022/05/21 12:54:25;;;;;;;8.50;5.95;;;29.90;76.20;;;;;;6092792;23;20002;-74
2022/05/21 12:56:53;;;;;;;12.10;6.18;;;29.90;77.70;;;;;;6092991;23;20057;-74
2022/05/21 12:59:20;;;;;;;6.78;6.20;;;30.10;77.60;;;;;;6156388;23;20004;-74
2022/05/21 13:02:01;;;;;;;6.88;6.25;;;30.00;76.40;;;;;;6214230;23;20043;-74
2022/05/21 13:04:31;;;;;;;10.82;6.50;;;30.10;77.70;;;;;;6213765;23;20005;-74
2022/05/21 13:07:10;;;;;;;11.13;6.70;;;30.20;77.40;;;;;;6214035;23;20000;-74
2022/05/21 13:09:48;;;;;;;8.32;5.88;;;30.30;77.00;;;;;;6214154;23;20008;-74
2022/05/21 13:12:15;;;;;;;11.80;6.30;;;30.50;78.00;;;;;;6187353;23;20036;-74
2022/05/21 13:14:42;;;;;;;10.98;6.97;;;30.50;75.20;;;;;;6214094;23;20000;-74
2022/05/21 13:17:24;;;;;;;10.95;6.93;;;30.50;76.00;;;;;;6213887;23;20013;-74
2022/05/21 13:20:10;;;;;;;8.45;7.20;;;30.60;75.20;;;;;;6187289;23;20329;-74
2022/05/21 13:23:09;;;;;;;7.90;6.55;;;30.60;74.90;;;;;;6187102;23;20317;-74
2022/05/21 13:25:36;;;;;;;11.25;7.03;;;30.50;75.30;;;;;;6187053;23;20574;-74
2022/05/21 13:28:15;;;;;;;6.15;5.35;;;30.60;75.10;;;;;;6213895;23;20004;-74
2022/05/21 13:30:46;;;;;;;7.28;6.57;;;30.60;74.70;;;;;;6213605;23;20015;-74
2022/05/21 13:33:15;;;;;;;6.90;5.65;;;30.70;74.70;;;;;;6213683;23;19997;-74
2022/05/21 13:35:42;;;;;;;9.48;5.50;;;30.80;74.70;;;;;;6213775;23;20377;-74
2022/05/21 13:38:13;;;;;;;11.88;6.05;;;30.90;75.70;;;;;;6213694;23;20008;-74
2022/05/21 13:40:55;;;;;;;12.13;6.38;;;31.00;74.30;;;;;;6213816;23;20000;-74